Time;durP1;ratioP1;P1;durP2;ratioP2;P2;SDS_P1;SDS_P2;PMS_P1;PMS_P2;Temp;Humidity;BMP_temperature;BMP_pressure;BME280_temperature;BME280_humidity;BME280_pressure;Samples;Min_cycle;Max_cycle;Signal;HPM_P1;HPM_P2
2022/06/30 00:03:49;;;;;;;4.47;1.58;;;;;;;19.83;100.00;101410.25;10353478;28;20519;-67
2022/06/30 00:08:46;;;;;;;3.78;1.52;;;;;;;19.77;100.00;101408.94;10358812;28;20051;-67
2022/06/30 00:13:42;;;;;;;3.70;1.63;;;;;;;19.69;100.00;101401.63;10360347;28;20040;-70
2022/06/30 00:18:39;;;;;;;4.32;1.65;;;;;;;19.61;100.00;101395.09;10362047;28;20123;-70
2022/06/30 00:23:36;;;;;;;3.65;1.83;;;;;;;19.55;100.00;101394.56;10350538;28;20130;-70
2022/06/30 00:28:32;;;;;;;3.63;1.58;;;;;;;19.47;100.00;101401.13;10358940;28;20040;-69
2022/06/30 00:33:29;;;;;;;4.55;1.73;;;;;;;19.43;100.00;101394.72;10345443;28;20096;-70
2022/06/30 00:38:25;;;;;;;5.75;1.98;;;;;;;19.36;100.00;101400.09;10355585;28;20043;-70
2022/06/30 00:43:21;;;;;;;3.80;1.88;;;;;;;19.31;100.00;101380.97;10353017;28;20130;-70
2022/06/30 00:48:18;;;;;;;3.53;1.73;;;;;;;19.24;100.00;101375.22;10327478;28;20430;-69
2022/06/30 00:53:17;;;;;;;3.33;1.80;;;;;;;19.18;100.00;101371.16;10356403;28;20258;-68
2022/06/30 00:58:15;;;;;;;4.53;2.00;;;;;;;19.11;100.00;101383.66;10339094;28;20052;-68
2022/06/30 01:03:12;;;;;;;6.60;1.88;;;;;;;19.06;100.00;101375.63;10348284;28;20475;-68
2022/06/30 01:08:10;;;;;;;3.40;1.65;;;;;;;18.99;100.00;101369.94;10356979;28;20135;-69
2022/06/30 01:13:06;;;;;;;5.45;1.85;;;;;;;18.96;100.00;101376.19;10345011;28;20048;-68
2022/06/30 01:18:03;;;;;;;4.10;1.65;;;;;;;18.88;100.00;101357.78;10347123;28;20082;-67
2022/06/30 01:23:02;;;;;;;4.53;1.65;;;;;;;18.81;100.00;101352.88;10354859;28;20082;-66
2022/06/30 01:27:59;;;;;;;5.72;1.80;;;;;;;18.79;100.00;101351.63;10353663;28;20082;-70
2022/06/30 01:32:56;;;;;;;5.22;1.98;;;;;;;18.74;100.00;101349.09;10342146;28;20488;-70
2022/06/30 01:37:58;;;;;;;5.75;2.38;;;;;;;18.66;100.00;101346.16;10362213;28;20048;-70
2022/06/30 01:42:55;;;;;;;4.15;1.58;;;;;;;18.59;100.00;101351.53;10347108;28;20040;-70
2022/06/30 01:47:52;;;;;;;7.15;2.40;;;;;;;18.54;100.00;101334.34;10362897;28;20067;-68
2022/06/30 01:52:48;;;;;;;6.35;2.70;;;;;;;18.50;100.00;101337.03;10333205;28;20082;-67
2022/06/30 01:57:45;;;;;;;5.45;2.42;;;;;;;18.47;100.00;101348.81;10354586;28;20082;-66
2022/06/30 02:02:42;;;;;;;5.15;2.30;;;;;;;18.42;100.00;101351.84;10360001;28;20052;-67
2022/06/30 02:07:39;;;;;;;6.03;2.20;;;;;;;18.39;100.00;101352.56;10362878;28;20067;-69
2022/06/30 02:12:45;;;;;;;3.90;2.00;;;;;;;18.35;100.00;101346.13;10351757;28;20134;-67
2022/06/30 02:17:43;;;;;;;4.72;2.03;;;;;;;18.27;100.00;101340.41;10365619;28;20588;-68
2022/06/30 02:22:41;;;;;;;4.40;2.10;;;;;;;18.23;100.00;101350.56;10372567;28;20051;-70
2022/06/30 02:27:38;;;;;;;4.20;2.13;;;;;;;18.18;100.00;101356.38;10358725;28;20392;-67
2022/06/30 02:32:35;;;;;;;6.78;2.10;;;;;;;18.13;100.00;101362.16;10350563;28;20462;-67
2022/06/30 02:37:31;;;;;;;4.47;2.30;;;;;;;18.10;100.00;101362.88;10355207;28;20151;-67
2022/06/30 02:42:27;;;;;;;5.63;2.22;;;;;;;18.09;100.00;101361.25;10372428;28;20048;-70
2022/06/30 02:47:36;;;;;;;4.47;2.20;;;;;;;18.04;100.00;101347.69;10356363;28;20079;-70
2022/06/30 02:52:35;;;;;;;5.82;2.50;;;;;;;18.00;100.00;101346.78;10355507;28;20453;-70
2022/06/30 02:57:33;;;;;;;5.43;2.33;;;;;;;17.98;100.00;101344.34;10345206;28;20059;-70
2022/06/30 03:02:29;;;;;;;5.60;2.60;;;;;;;17.95;100.00;101333.22;10361773;28;20546;-67
2022/06/30 03:07:26;;;;;;;5.78;2.35;;;;;;;17.92;100.00;101343.03;10357301;28;20102;-68
2022/06/30 03:12:22;;;;;;;5.22;2.10;;;;;;;17.87;100.00;101333.00;10348049;28;20044;-68
2022/06/30 03:17:19;;;;;;;4.13;2.17;;;;;;;17.84;100.00;101321.84;10346063;28;20052;-69
2022/06/30 03:22:15;;;;;;;5.53;2.42;;;;;;;17.85;100.00;101324.25;10359491;28;20098;-68
2022/06/30 03:27:12;;;;;;;4.55;2.03;;;;;;;17.83;100.00;101332.09;10365213;28;20082;-70
2022/06/30 03:32:09;;;;;;;7.75;2.42;;;;;;;17.81;100.00;101317.81;10333297;28;20093;-69
2022/06/30 03:37:05;;;;;;;6.40;2.63;;;;;;;17.76;100.00;101315.28;10361107;28;20105;-69
2022/06/30 03:42:02;;;;;;;9.45;3.20;;;;;;;17.73;100.00;101310.47;10342701;28;20079;-69
2022/06/30 03:46:58;;;;;;;7.80;2.72;;;;;;;17.74;100.00;101317.59;10354767;28;20052;-70
2022/06/30 03:51:55;;;;;;;5.53;2.65;;;;;;;17.72;100.00;101319.91;10295701;28;1161440;-69
2022/06/30 03:56:52;;;;;;;5.60;2.78;;;;;;;17.70;100.00;101316.69;10336121;28;20041;-70
2022/06/30 04:01:48;;;;;;;5.18;2.38;;;;;;;17.69;100.00;101312.31;10349542;28;20791;-71
2022/06/30 04:06:45;;;;;;;5.97;2.50;;;;;;;17.67;100.00;101306.31;10346658;28;20074;-70
2022/06/30 04:11:41;;;;;;;5.65;2.90;;;;;;;17.70;100.00;101311.16;10346916;28;20131;-70
2022/06/30 04:16:38;;;;;;;5.55;2.38;;;;;;;17.71;100.00;101301.72;10332890;27;20087;-70
2022/06/30 04:21:37;;;;;;;6.95;2.55;;;;;;;17.71;100.00;101307.25;10336629;27;20044;-69
2022/06/30 04:26:37;;;;;;;4.00;2.38;;;;;;;17.75;100.00;101291.53;10322715;28;20089;-70
2022/06/30 04:36:49;;;;;;;5.85;2.33;;;;;;;17.83;100.00;101298.91;10338866;28;20091;-70
2022/06/30 04:41:46;;;;;;;4.70;2.63;;;;;;;17.89;100.00;101307.75;10327286;28;20076;-70
2022/06/30 04:46:42;;;;;;;4.65;2.38;;;;;;;17.90;100.00;101308.56;10348502;28;20450;-70
2022/06/30 04:51:39;;;;;;;5.28;2.53;;;;;;;17.96;100.00;101309.91;10354527;28;20040;-69
2022/06/30 04:56:35;;;;;;;8.13;3.42;;;;;;;18.01;100.00;101304.09;10347746;28;20670;-70
2022/06/30 05:01:32;;;;;;;5.15;3.00;;;;;;;18.03;100.00;101297.09;10351215;28;20227;-68
2022/06/30 05:06:29;;;;;;;5.25;2.50;;;;;;;18.10;100.00;101296.44;10337327;28;20251;-68
2022/06/30 05:11:25;;;;;;;4.57;2.40;;;;;;;18.17;100.00;101290.31;10342434;28;20100;-68
2022/06/30 05:16:22;;;;;;;6.55;2.55;;;;;;;18.25;100.00;101306.75;10353943;27;20672;-68
2022/06/30 05:21:18;;;;;;;6.03;2.65;;;;;;;18.36;100.00;101306.22;10332417;28;20044;-68
2022/06/30 05:26:30;;;;;;;7.30;3.10;;;;;;;18.50;100.00;101303.81;10334796;28;20522;-68
2022/06/30 05:31:26;;;;;;;6.68;2.47;;;;;;;18.63;100.00;101302.53;10330843;28;20490;-68
2022/06/30 05:36:23;;;;;;;6.22;2.90;;;;;;;18.77;100.00;101295.78;10330895;28;20048;-70
2022/06/30 05:41:19;;;;;;;6.82;2.55;;;;;;;18.84;100.00;101304.25;10335394;28;20080;-70
2022/06/30 05:46:16;;;;;;;5.85;2.63;;;;;;;18.90;100.00;101295.31;10336452;28;20056;-70
2022/06/30 05:51:13;;;;;;;6.63;3.47;;;;;;;18.93;100.00;101302.88;10324493;28;20477;-70
2022/06/30 05:56:10;;;;;;;9.48;2.75;;;;;;;18.90;100.00;101305.59;10335874;27;20578;-70
2022/06/30 06:01:06;;;;;;;6.22;2.95;;;;;;;18.93;100.00;101302.09;10358576;28;20036;-72
2022/06/30 06:06:03;;;;;;;5.25;2.40;;;;;;;19.00;100.00;101305.03;10360351;28;20048;-70
2022/06/30 06:11:00;;;;;;;4.50;2.67;;;;;;;19.09;100.00;101302.84;10346012;28;20044;-69
2022/06/30 06:15:56;;;;;;;7.13;2.70;;;;;;;19.20;100.00;101307.84;10349785;28;20536;-69
2022/06/30 06:20:53;;;;;;;7.75;2.92;;;;;;;19.35;100.00;101298.66;10344147;28;20126;-69
2022/06/30 06:26:09;;;;;;;6.22;2.80;;;;;;;19.44;100.00;101290.94;10342946;28;20411;-69
2022/06/30 06:31:07;;;;;;;10.98;7.30;;;;;;;19.54;100.00;101290.34;10347065;28;20721;-68
2022/06/30 06:36:04;;;;;;;6.13;2.38;;;;;;;19.62;100.00;101291.28;10340756;28;20054;-69
2022/06/30 06:41:02;;;;;;;9.38;3.00;;;;;;;19.81;100.00;101296.03;10340942;28;20060;-70
2022/06/30 06:45:59;;;;;;;6.70;2.30;;;;;;;19.88;100.00;101287.84;10351076;28;20040;-71
2022/06/30 06:50:55;;;;;;;7.57;3.05;;;;;;;19.97;100.00;101296.75;10344117;28;20056;-68
2022/06/30 06:55:52;;;;;;;8.40;2.90;;;;;;;20.10;100.00;101296.59;10349069;28;20042;-68
2022/06/30 07:00:50;;;;;;;6.60;2.83;;;;;;;20.23;100.00;101292.44;10354552;28;20085;-68
2022/06/30 07:05:47;;;;;;;5.70;3.35;;;;;;;20.33;100.00;101280.75;10343807;28;20040;-69
2022/06/30 07:10:44;;;;;;;6.03;2.92;;;;;;;20.46;100.00;101286.09;10353252;28;20082;-68
2022/06/30 07:15:40;;;;;;;6.05;2.97;;;;;;;20.60;100.00;101289.13;10358679;28;20074;-69
2022/06/30 07:20:37;;;;;;;7.57;2.60;;;;;;;20.70;100.00;101282.97;10361012;28;20052;-69
2022/06/30 07:25:33;;;;;;;6.10;2.45;;;;;;;20.84;100.00;101281.56;10367650;28;20039;-69
2022/06/30 07:30:33;;;;;;;7.18;2.60;;;;;;;20.94;100.00;101292.03;10361677;28;20508;-69
2022/06/30 07:35:30;;;;;;;4.90;2.00;;;;;;;21.03;100.00;101281.44;10363785;28;20586;-70
2022/06/30 07:40:26;;;;;;;6.55;2.88;;;;;;;21.23;100.00;101285.69;10342182;28;20672;-69
2022/06/30 07:45:23;;;;;;;6.70;2.50;;;;;;;21.36;100.00;101279.91;10334390;28;20063;-69
2022/06/30 07:50:20;;;;;;;4.95;2.50;;;;;;;21.47;100.00;101280.88;10341882;28;20048;-68
2022/06/30 07:55:16;;;;;;;6.20;2.50;;;;;;;21.57;100.00;101271.81;10326951;28;20056;-68
2022/06/30 08:00:15;;;;;;;5.47;2.35;;;;;;;21.73;100.00;101270.81;10316047;28;20488;-68
2022/06/30 08:05:11;;;;;;;6.22;2.20;;;;;;;21.85;100.00;101262.97;10327828;28;20082;-69
2022/06/30 08:10:08;;;;;;;8.95;2.35;;;;;;;21.99;100.00;101267.91;10344678;28;20456;-69
2022/06/30 08:15:05;;;;;;;8.00;2.92;;;;;;;22.18;100.00;101266.09;10359072;28;21359;-69
2022/06/30 08:20:02;;;;;;;5.97;2.25;;;;;;;22.33;100.00;101259.50;10346579;28;20097;-68
2022/06/30 08:25:00;;;;;;;6.75;2.08;;;;;;;22.51;100.00;101247.66;10331999;28;20139;-69
2022/06/30 08:29:57;;;;;;;5.82;2.47;;;;;;;22.66;100.00;101243.81;10326192;28;20548;-69
2022/06/30 08:34:53;;;;;;;25.65;7.05;;;;;;;22.85;100.00;101240.72;10329291;28;20134;-69
2022/06/30 08:45:14;;;;;;;7.65;2.50;;;;;;;23.11;100.00;101230.53;10325235;28;20048;-69
2022/06/30 08:50:14;;;;;;;6.65;2.15;;;;;;;23.24;100.00;101220.63;10325720;28;20044;-69
2022/06/30 08:55:12;;;;;;;4.90;2.40;;;;;;;23.30;100.00;101226.63;10353833;28;20036;-69
2022/06/30 09:00:12;;;;;;;5.03;1.70;;;;;;;23.51;100.00;101214.75;10344069;28;20076;-69
2022/06/30 09:05:10;;;;;;;7.03;2.08;;;;;;;23.67;100.00;101217.16;10338404;28;20040;-68
2022/06/30 09:10:07;;;;;;;5.10;1.70;;;;;;;23.78;100.00;101206.06;10337934;28;20068;-68
2022/06/30 09:15:04;;;;;;;7.07;2.20;;;;;;;23.91;100.00;101193.31;10331857;28;20064;-68
2022/06/30 09:20:08;;;;;;;4.32;1.92;;;;;;;24.10;100.00;101201.28;10327257;28;20047;-68
2022/06/30 09:25:06;;;;;;;4.20;2.20;;;;;;;24.25;100.00;101195.69;10317802;28;20110;-68
2022/06/30 09:30:08;;;;;;;3.53;1.67;;;;;;;24.39;100.00;101184.47;10329754;28;20056;-69
2022/06/30 09:35:12;;;;;;;7.93;1.90;;;;;;;24.57;99.48;101171.31;10317479;28;20200;-69
2022/06/30 09:40:10;;;;;;;4.82;1.80;;;;;;;24.74;95.91;101166.88;10336303;28;20105;-68
2022/06/30 09:45:11;;;;;;;4.80;1.80;;;;;;;24.89;95.45;101166.81;10338086;28;20036;-69
2022/06/30 09:50:07;;;;;;;6.93;1.70;;;;;;;25.03;94.39;101165.97;10330000;28;20124;-68
2022/06/30 09:55:08;;;;;;;4.72;1.80;;;;;;;25.21;97.57;101161.09;10328416;28;20086;-69
2022/06/30 10:00:17;;;;;;;6.20;1.45;;;;;;;25.39;95.20;101153.41;10321758;28;20049;-67
2022/06/30 10:05:16;;;;;;;4.38;1.60;;;;;;;25.57;93.23;101138.47;10322223;28;20131;-68
2022/06/30 10:10:16;;;;;;;6.88;2.20;;;;;;;25.83;86.93;101151.88;10327021;28;20488;-68
2022/06/30 10:15:14;;;;;;;4.70;1.90;;;;;;;26.15;91.26;101167.63;10326841;28;20056;-68
2022/06/30 10:20:11;;;;;;;4.45;1.80;;;;;;;27.37;80.71;101160.66;10326190;28;20581;-68
2022/06/30 10:25:08;;;;;;;6.40;1.80;;;;;;;28.58;81.46;101157.03;10322970;28;20136;-69
2022/06/30 10:30:10;;;;;;;4.95;1.90;;;;;;;29.74;78.87;101151.31;10324925;28;20040;-69
2022/06/30 10:35:22;;;;;;;6.55;2.20;;;;;;;30.30;57.45;101153.13;10346584;28;20072;-69
2022/06/30 10:40:40;;;;;;;4.03;1.80;;;;;;;31.54;63.70;101147.09;10334123;28;20057;-69
2022/06/30 10:45:54;;;;;;;5.63;1.98;;;;;;;32.64;60.55;101146.56;10343063;28;20078;-69
2022/06/30 10:50:52;;;;;;;4.78;2.70;;;;;;;32.60;52.63;101141.03;10343414;28;20043;-69
2022/06/30 10:55:55;;;;;;;4.68;2.13;;;;;;;32.97;54.41;101127.09;10347152;28;20044;-68
2022/06/30 11:01:02;;;;;;;5.65;1.67;;;;;;;33.43;52.78;101132.22;10351594;28;20040;-69
2022/06/30 11:06:10;;;;;;;4.75;1.90;;;;;;;34.07;47.34;101140.88;10339526;28;20113;-69
2022/06/30 11:11:22;;;;;;;6.25;2.15;;;;;;;32.74;43.77;101134.03;10358378;28;20083;-69
2022/06/30 11:16:19;;;;;;;5.03;2.25;;;;;;;33.14;48.73;101133.34;10334516;28;20055;-69
2022/06/30 11:21:16;;;;;;;4.43;1.77;;;;;;;33.79;50.93;101117.34;10333643;28;20056;-70
2022/06/30 11:31:32;;;;;;;3.83;2.10;;;;;;;34.30;43.04;101113.13;10333495;28;20048;-71
2022/06/30 11:36:29;;;;;;;6.32;2.00;;;;;;;34.78;44.52;101102.03;10328109;28;20044;-71
2022/06/30 11:46:58;;;;;;;3.95;2.20;;;;;;;34.82;45.33;101102.66;10343775;28;20503;-71
2022/06/30 11:51:55;;;;;;;3.60;2.03;;;;;;;33.05;46.89;101096.47;10346743;28;20076;-71
2022/06/30 11:56:55;;;;;;;5.03;1.98;;;;;;;33.66;50.66;101100.47;10339057;28;20617;-71
2022/06/30 12:02:00;;;;;;;5.53;2.60;;;;;;;32.28;49.55;101094.06;10333780;28;20094;-71
2022/06/30 12:06:57;;;;;;;8.55;2.60;;;;;;;32.08;49.23;101085.94;10332074;28;20048;-71
2022/06/30 12:11:53;;;;;;;7.10;2.20;;;;;;;32.30;53.74;101085.91;10336703;28;20492;-71
2022/06/30 12:16:57;;;;;;;4.78;2.33;;;;;;;32.70;50.21;101076.75;10332554;28;20491;-70
2022/06/30 12:21:54;;;;;;;4.47;2.00;;;;;;;33.17;51.02;101064.44;10334548;28;20446;-70
2022/06/30 12:26:57;;;;;;;7.35;4.50;;;;;;;32.11;55.58;101070.06;10338857;28;20044;-70
2022/06/30 12:32:11;;;;;;;4.35;2.40;;;;;;;30.85;60.37;101067.75;10364601;28;20587;-70
2022/06/30 12:37:08;;;;;;;6.15;2.20;;;;;;;30.14;65.73;101062.91;10354899;28;20092;-70
2022/06/30 12:42:06;;;;;;;3.70;1.80;;;;;;;29.70;70.85;101059.66;10357545;28;20036;-70
2022/06/30 12:47:08;;;;;;;3.47;1.80;;;;;;;29.31;71.51;101073.47;10358922;28;20056;-70
2022/06/30 12:52:13;;;;;;;4.07;2.10;;;;;;;29.01;78.94;101070.91;10343157;28;20085;-70
2022/06/30 12:57:10;;;;;;;3.22;2.03;;;;;;;28.86;76.94;101076.88;10351324;28;20040;-70
2022/06/30 13:02:06;;;;;;;5.80;2.17;;;;;;;28.75;81.71;101070.69;10355900;28;20036;-70
2022/06/30 13:07:03;;;;;;;3.33;2.00;;;;;;;28.64;83.81;101067.31;10358338;28;20408;-71
2022/06/30 13:12:02;;;;;;;6.03;2.15;;;;;;;28.51;82.25;101062.34;10341154;28;20094;-70
2022/06/30 13:17:02;;;;;;;3.42;2.30;;;;;;;29.16;78.40;101053.28;10342076;28;20104;-70
2022/06/30 13:21:59;;;;;;;3.78;1.65;;;;;;;29.73;78.59;101053.94;10328048;28;20056;-70
2022/06/30 13:27:04;;;;;;;3.75;1.58;;;;;;;29.54;78.49;101055.59;10330563;27;20074;-70
2022/06/30 13:32:01;;;;;;;6.95;2.20;;;;;;;29.47;78.91;101058.56;10326909;28;20044;-70
2022/06/30 13:36:58;;;;;;;3.42;1.95;;;;;;;29.29;78.81;101058.22;10332702;28;20605;-70
2022/06/30 13:41:54;;;;;;;4.45;1.73;;;;;;;29.19;78.70;101059.28;10342445;28;20136;-71
2022/06/30 13:46:51;;;;;;;4.85;2.55;;;;;;;29.14;77.17;101049.34;10333878;28;20097;-71
2022/06/30 13:51:47;;;;;;;4.35;2.08;;;;;;;28.97;81.11;101059.75;10360390;28;20048;-70
2022/06/30 13:56:44;;;;;;;4.95;2.17;;;;;;;29.13;81.43;101040.09;10338913;28;20433;-71
2022/06/30 14:01:41;;;;;;;4.78;2.13;;;;;;;29.01;81.39;101043.59;10345308;28;20679;-71
2022/06/30 14:06:37;;;;;;;5.53;2.72;;;;;;;29.01;71.67;101031.50;10326499;28;20431;-71
2022/06/30 14:11:34;;;;;;;4.97;2.20;;;;;;;29.16;80.30;101039.22;10368376;27;20044;-71
2022/06/30 14:16:30;;;;;;;4.68;2.30;;;;;;;28.93;73.08;101040.13;10350380;28;20463;-70
2022/06/30 14:21:27;;;;;;;4.70;2.22;;;;;;;28.87;82.11;101036.25;10372946;28;20147;-70
2022/06/30 14:26:24;;;;;;;4.75;2.42;;;;;;;29.31;82.08;101027.59;10342288;28;20145;-71
2022/06/30 14:31:20;;;;;;;4.50;1.90;;;;;;;29.34;80.09;101026.72;10360860;28;20051;-71
2022/06/30 14:36:17;;;;;;;4.32;2.33;;;;;;;30.07;76.81;101021.59;10348974;28;20681;-71
2022/06/30 14:42:43;;;;;;;3.17;1.80;;;;;;;30.29;73.79;101021.03;10325162;28;20070;-70
2022/06/30 14:46:30;;;;;;;4.53;1.83;;;;;;;30.24;74.78;101013.88;10338528;28;20665;-70
2022/06/30 14:51:26;;;;;;;6.75;1.90;;;;;;;30.29;74.80;101016.16;10343768;28;20102;-70
2022/06/30 14:56:23;;;;;;;6.90;2.00;;;;;;;30.73;68.66;101019.28;10340709;28;20476;-70
2022/06/30 15:01:19;;;;;;;5.15;2.00;;;;;;;30.53;72.44;101018.69;10334164;28;20060;-69
2022/06/30 15:06:16;;;;;;;5.88;2.08;;;;;;;30.50;70.65;100999.84;10337086;28;20512;-70
2022/06/30 15:11:17;;;;;;;4.78;2.03;;;;;;;30.51;69.25;100992.97;10335223;28;20048;-70
2022/06/30 15:16:15;;;;;;;6.38;2.25;;;;;;;30.42;66.12;100991.59;10343415;28;20470;-70
2022/06/30 15:26:28;;;;;;;6.35;2.40;;;;;;;30.39;72.51;100981.22;10341945;28;20064;-70
2022/06/30 15:31:25;;;;;;;6.20;1.98;;;;;;;30.35;70.67;100979.72;10338328;28;20480;-69
2022/06/30 15:36:22;;;;;;;4.53;1.85;;;;;;;29.93;72.67;100972.03;10332721;28;20113;-70
2022/06/30 15:41:18;;;;;;;5.05;2.00;;;;;;;29.62;73.87;100979.34;10335294;28;20044;-70
2022/06/30 15:46:15;;;;;;;4.93;1.60;;;;;;;29.68;80.94;100960.69;10335647;28;20109;-70
2022/06/30 15:51:13;;;;;;;3.38;1.30;;;;;;;29.92;82.52;100953.56;10322157;28;20477;-69
2022/06/30 15:56:10;;;;;;;4.15;1.20;;;;;;;30.22;80.74;100959.94;10343241;27;20036;-69
2022/06/30 16:01:06;;;;;;;4.30;1.40;;;;;;;30.81;73.95;100958.53;10341544;28;20041;-70
2022/06/30 16:06:03;;;;;;;5.35;1.48;;;;;;;31.80;70.37;100957.66;10346025;28;20611;-70
2022/06/30 16:11:00;;;;;;;5.45;1.77;;;;;;;32.72;64.77;100972.34;10337402;28;20144;-70
2022/06/30 16:16:04;;;;;;;5.15;1.50;;;;;;;32.96;59.88;100963.31;10324134;28;20486;-69
2022/06/30 16:21:01;;;;;;;4.95;1.33;;;;;;;33.25;59.93;100962.94;10321146;28;20068;-69
2022/06/30 16:25:58;;;;;;;6.30;1.63;;;;;;;33.57;57.20;100949.41;10318132;28;20821;-71
2022/06/30 16:30:54;;;;;;;3.80;1.50;;;;;;;34.04;56.46;100954.56;10324616;28;20105;-68
2022/06/30 16:35:51;;;;;;;6.60;2.63;;;;;;;34.18;55.43;100949.53;10330553;28;20042;-67
2022/06/30 16:40:48;;;;;;;4.57;1.83;;;;;;;33.93;53.96;100959.94;10341811;28;20649;-67
2022/06/30 16:45:45;;;;;;;5.68;1.38;;;;;;;33.35;56.83;100960.88;10331217;28;20094;-69
2022/06/30 16:50:42;;;;;;;5.82;2.30;;;;;;;32.98;59.88;100955.13;10327214;28;20097;-69
2022/06/30 16:55:47;;;;;;;5.75;2.33;;;;;;;33.26;60.50;100948.31;10327862;28;20443;-69
2022/06/30 17:00:46;;;;;;;6.82;3.10;;;;;;;33.74;56.60;100936.50;10324222;28;20766;-68
2022/06/30 17:05:43;;;;;;;6.15;1.98;;;;;;;33.86;57.66;100926.25;10329450;28;20124;-69
2022/06/30 17:10:41;;;;;;;3.58;1.80;;;;;;;33.33;57.15;100930.22;10334504;28;20499;-68
2022/06/30 17:15:38;;;;;;;5.18;1.38;;;;;;;32.65;62.48;100921.69;10313882;28;20055;-70
2022/06/30 17:20:34;;;;;;;3.90;1.13;;;;;;;32.09;65.86;100920.63;10314068;28;20040;-68
2022/06/30 17:25:31;;;;;;;4.18;1.65;;;;;;;31.43;73.11;100915.75;10325169;28;20648;-68
2022/06/30 17:30:27;;;;;;;2.97;1.30;;;;;;;30.89;78.24;100904.69;10323716;28;20052;-67
2022/06/30 17:35:24;;;;;;;3.80;1.70;;;;;;;30.26;83.25;100898.59;10315188;28;20097;-68
2022/06/30 17:40:21;;;;;;;4.28;1.45;;;;;;;29.74;79.70;100897.69;10297064;28;22328;-68
2022/06/30 17:45:17;;;;;;;7.55;2.28;;;;;;;29.46;85.08;100899.28;10317933;28;20048;-68
2022/06/30 17:50:14;;;;;;;4.47;1.60;;;;;;;28.73;87.99;100899.53;10322869;28;20064;-68
2022/06/30 17:55:11;;;;;;;3.40;1.33;;;;;;;28.64;96.78;100896.53;10322195;28;20505;-68
2022/06/30 18:00:08;;;;;;;3.65;1.40;;;;;;;28.43;100.00;100885.72;10315060;28;20577;-68
2022/06/30 18:05:05;;;;;;;4.38;1.38;;;;;;;28.26;99.99;100894.13;10317890;28;20607;-68
2022/06/30 18:15:17;;;;;;;4.93;1.40;;;;;;;27.73;100.00;100890.44;10308063;28;20075;-68
2022/06/30 18:20:13;;;;;;;4.50;1.50;;;;;;;27.57;100.00;100887.53;10313727;28;20138;-68
2022/06/30 18:25:10;;;;;;;4.97;1.65;;;;;;;27.41;100.00;100891.88;10318780;28;20630;-69
2022/06/30 18:30:07;;;;;;;4.53;1.50;;;;;;;27.21;100.00;100903.03;10323778;28;20044;-68
2022/06/30 18:35:04;;;;;;;8.18;1.88;;;;;;;27.14;100.00;100910.78;10322080;28;20060;-69
2022/06/30 18:40:01;;;;;;;5.60;2.20;;;;;;;26.98;100.00;100909.44;10331730;28;20055;-68
2022/06/30 18:44:57;;;;;;;6.20;1.98;;;;;;;26.94;100.00;100907.91;10308769;28;20068;-68
2022/06/30 18:49:54;;;;;;;6.07;1.80;;;;;;;26.79;100.00;100907.34;10322368;28;20079;-68
2022/06/30 18:54:50;;;;;;;6.28;2.00;;;;;;;26.62;100.00;100910.00;10321412;28;20048;-68
2022/06/30 18:59:47;;;;;;;7.72;1.65;;;;;;;26.51;100.00;100902.97;10327819;28;20044;-68
2022/06/30 19:04:44;;;;;;;7.05;1.95;;;;;;;26.36;100.00;100913.56;10323085;28;20508;-69
2022/06/30 19:09:41;;;;;;;5.15;1.98;;;;;;;26.17;100.00;100904.59;10319954;28;20047;-68
2022/06/30 19:14:37;;;;;;;5.60;1.80;;;;;;;25.90;100.00;100912.97;10324230;28;20068;-69
2022/06/30 19:19:35;;;;;;;5.60;2.00;;;;;;;25.79;100.00;100899.06;10328581;28;20120;-69
2022/06/30 19:24:32;;;;;;;4.90;2.53;;;;;;;25.68;100.00;100904.00;10322575;28;20036;-69
2022/06/30 19:29:29;;;;;;;4.97;2.10;;;;;;;25.57;100.00;100903.31;10331143;28;20573;-69
2022/06/30 19:34:25;;;;;;;5.55;1.90;;;;;;;25.42;100.00;100907.50;10327394;28;20159;-69
2022/06/30 19:39:22;;;;;;;5.03;2.20;;;;;;;25.33;100.00;100914.34;10310524;28;20052;-69
2022/06/30 19:44:21;;;;;;;6.05;3.10;;;;;;;25.25;100.00;100914.84;10328629;28;20045;-75
2022/06/30 19:49:19;;;;;;;5.40;2.63;;;;;;;25.09;100.00;100912.56;10336488;28;20623;-76
2022/06/30 19:54:15;;;;;;;4.90;2.15;;;;;;;25.03;100.00;100919.81;10327303;28;20049;-68
2022/06/30 19:59:12;;;;;;;5.03;2.75;;;;;;;24.86;100.00;100921.53;10326311;28;20105;-66
2022/06/30 20:14:39;;;;;;;5.82;2.30;;;;;;;24.53;100.00;100938.53;10334448;28;20214;-63
2022/06/30 20:19:35;;;;;;;7.57;3.35;;;;;;;24.47;100.00;100942.97;10333765;28;20082;-62
2022/06/30 20:24:32;;;;;;;6.35;3.10;;;;;;;24.35;100.00;100935.81;10336525;28;20071;-62
2022/06/30 20:29:28;;;;;;;7.10;2.70;;;;;;;24.30;100.00;100935.44;10341642;28;20138;-63
2022/06/30 20:34:25;;;;;;;5.32;2.55;;;;;;;24.11;100.00;100937.53;10354869;28;20113;-63
2022/06/30 20:39:22;;;;;;;4.40;2.45;;;;;;;24.10;100.00;100933.13;10333224;28;20073;-62
2022/06/30 20:44:18;;;;;;;5.45;2.58;;;;;;;24.06;100.00;100937.94;10352973;28;20135;-62
2022/06/30 20:54:29;;;;;;;7.05;3.08;;;;;;;23.90;100.00;100924.44;10352056;27;20155;-62
2022/06/30 20:59:26;;;;;;;6.65;2.92;;;;;;;23.84;100.00;100933.66;10339460;28;20075;-60
2022/06/30 21:04:22;;;;;;;6.30;2.67;;;;;;;23.81;100.00;100931.63;10339764;28;20044;-60
2022/06/30 21:09:19;;;;;;;5.57;2.88;;;;;;;23.77;100.00;100934.47;10346791;28;20079;-61
2022/06/30 21:14:15;;;;;;;9.23;3.10;;;;;;;23.72;100.00;100930.06;10354741;28;20612;-63
2022/06/30 21:19:12;;;;;;;9.40;3.90;;;;;;;23.67;100.00;100933.25;10347249;28;20037;-60
2022/06/30 21:24:09;;;;;;;6.45;2.75;;;;;;;23.62;100.00;100932.84;10349618;28;20059;-63
2022/06/30 21:29:07;;;;;;;4.95;3.03;;;;;;;23.60;100.00;100929.66;10354087;28;20139;-63
2022/06/30 21:34:03;;;;;;;5.88;2.70;;;;;;;23.51;100.00;100930.13;10357884;28;20047;-63
2022/06/30 21:39:03;;;;;;;5.72;3.28;;;;;;;23.45;100.00;100920.53;10341370;28;20054;-65
2022/06/30 21:44:00;;;;;;;7.60;3.35;;;;;;;23.42;100.00;100926.94;10353143;28;20080;-65
2022/06/30 21:49:02;;;;;;;8.77;4.20;;;;;;;23.35;100.00;100929.72;10337614;28;20048;-63
2022/06/30 21:53:59;;;;;;;6.13;3.05;;;;;;;23.30;100.00;100926.16;10353820;28;20042;-63
2022/06/30 21:58:55;;;;;;;6.82;4.03;;;;;;;23.28;100.00;100917.38;10332069;28;20480;-64
2022/06/30 22:03:54;;;;;;;7.90;4.00;;;;;;;23.24;100.00;100916.59;10355618;28;20051;-65
2022/06/30 22:08:50;;;;;;;8.20;4.20;;;;;;;23.16;100.00;100903.84;10358670;28;20072;-63
2022/06/30 22:13:47;;;;;;;7.35;4.63;;;;;;;23.13;100.00;100893.47;10360167;28;20059;-64
2022/06/30 22:18:43;;;;;;;6.18;4.32;;;;;;;23.13;100.00;100889.91;10336835;28;20508;-63
2022/06/30 22:23:40;;;;;;;8.35;5.05;;;;;;;23.03;100.00;100888.72;10356987;27;20072;-63
2022/06/30 22:28:37;;;;;;;7.32;4.68;;;;;;;23.02;100.00;100895.47;10361456;28;20048;-63
2022/06/30 22:33:34;;;;;;;6.93;5.60;;;;;;;22.92;100.00;100893.47;10357049;28;20500;-63
2022/06/30 22:38:30;;;;;;;7.93;4.93;;;;;;;22.96;100.00;100891.47;10350642;28;20054;-64
2022/06/30 22:43:27;;;;;;;8.38;4.85;;;;;;;22.94;100.00;100905.03;10354257;28;20045;-64
2022/06/30 22:48:23;;;;;;;7.40;5.50;;;;;;;22.85;100.00;100922.91;10361948;28;20044;-64
2022/06/30 22:53:20;;;;;;;8.90;5.45;;;;;;;22.86;100.00;100932.91;10354540;28;20515;-63
2022/06/30 22:58:16;;;;;;;8.82;5.30;;;;;;;22.80;100.00;100914.16;10355140;27;20130;-63
2022/06/30 23:03:13;;;;;;;7.70;6.20;;;;;;;22.77;100.00;100923.34;10334760;28;20048;-63
2022/06/30 23:08:10;;;;;;;9.13;5.60;;;;;;;22.77;100.00;100915.75;10356517;28;20054;-63
2022/06/30 23:13:06;;;;;;;8.77;6.10;;;;;;;22.79;100.00;100918.97;10357808;28;20055;-64
2022/06/30 23:18:03;;;;;;;7.57;5.20;;;;;;;22.75;100.00;100904.22;10356471;28;20499;-63
2022/06/30 23:23:00;;;;;;;10.60;7.90;;;;;;;22.71;100.00;100917.34;10364590;28;20044;-63
2022/06/30 23:27:57;;;;;;;7.68;5.45;;;;;;;22.68;100.00;100930.06;10349325;28;20036;-63